Service Notice

This observation station is currently unavailable due to a loss of power in the area.

Work to restore the service will be undertaken as soon as it is safe to do so.

The Bureau's national resources allow our meteorologists to produce accurate and timely forecasts and warnings in areas without observations, including for the locations around this station site. Search for forcast by town, city, post code or lat/lon here or find the location on the MetEye map.

Latest Weather Observations for Cabramurra

IDN60801

Issued at 11:23 am EST Tuesday 21 September 2021 (issued every 10 minutes, with the page automatically refreshed every 10 minutes)

About weather observations | Map of weather stations | Latest weather observations for NSW | Other Formats
Station Details ID: 072161 Name: CABRAMURRA SMHEA AWS Lat: -35.94 Lon: 148.38 Height: 1482.4 m
Data from the previous 72 hours. | See also: Recent months at Cabramurra
Date/Time
EST
Temp
°C
App
Temp
°C
Dew
Point
°C
Rel
Hum
%
Delta-T
°C
Wind Press
QNH
hPa
Press
MSL
hPa
Rain since
9am
mm
Dir  Spd
km/h
Gust
km/h
Spd
kts
Gust
kts
21/11:00am 0.0 -5.2 0.0 100 0.0 SSW 17 28 9 15 - - 7.0
21/10:30am -0.8 -6.5 -0.8 100 0.0 SW 19 26 10 14 - - 5.2
21/10:00am -1.1 -6.8 -1.1 100 0.0 SW 19 32 10 17 - - 2.4
21/09:30am -1.3 -7.3 -1.3 100 0.0 SSW 20 39 11 21 - - 0.0
21/09:00am -2.0 -7.9 -2.0 100 0.0 SSW 19 26 10 14 - - 9.2
21/08:30am -2.8 -8.4 -2.8 100 0.0 SW 17 26 9 14 - - 9.2
21/08:00am -3.0 -9.0 -3.0 100 0.0 SW 19 26 10 14 - - 9.2
21/07:30am -3.2 -9.4 -3.2 100 0.0 SW 20 28 11 15 - - 9.2
21/07:00am -3.4 -10.0 -3.4 100 0.0 SW 22 35 12 19 - - 9.2
21/06:30am -3.8 -9.9 -3.9 99 -0.1 SSW 19 28 10 15 - - 9.2
21/06:00am -3.9 -10.0 -4.0 99 -0.1 SW 19 26 10 14 - - 9.2
21/05:30am -4.1 -9.9 -4.2 99 -0.1 SW 17 24 9 13 - - 9.2
21/05:00am -4.1 -9.9 -4.2 99 -0.1 SW 17 28 9 15 - - 9.2
21/04:30am -4.0 -9.0 -4.0 100 0.0 SSW 13 24 7 13 - - 9.2
21/04:00am -3.8 -9.5 -3.8 100 0.0 SW 17 22 9 12 - - 9.2
21/03:30am -3.7 -9.8 -3.7 100 0.0 SW 19 24 10 13 - - 9.2
21/03:00am -3.4 -8.7 -3.4 100 0.0 SW 15 28 8 15 - - 9.2
21/02:30am -3.4 -9.4 -3.4 100 0.0 WSW 19 28 10 15 - - 9.2
21/02:00am -3.3 -8.6 -3.3 100 0.0 WNW 15 24 8 13 - - 9.2
21/01:30am -3.4 -8.3 -3.4 100 0.0 WNW 13 22 7 12 - - 9.2
21/01:00am -3.3 -9.5 -3.3 100 0.0 W 20 37 11 20 - - 9.2
21/12:30am -3.0 -9.0 -3.0 100 0.0 W 19 32 10 17 - - 9.2
21/12:00am -3.1 -9.1 -3.1 100 0.0 W 19 32 10 17 - - 9.2
 
Date/Time
EST
Temp
°C
App
Temp
°C
Dew
Point
°C
Rel
Hum
%
Delta-T
°C
Wind Press
QNH
hPa
Press
MSL
hPa
Rain since
9am
mm
Dir  Spd
km/h
Gust
km/h
Spd
kts
Gust
kts
20/11:30pm -2.9 -9.1 -2.9 100 0.0 W 20 32 11 17 - - 9.2
20/11:00pm -2.8 -9.7 -2.8 100 0.0 W 24 35 13 19 - - 9.2
20/10:30pm -2.5 -8.6 -2.5 100 0.0 WNW 20 33 11 18 - - 9.2
20/10:00pm -2.2 -11.1 -2.2 100 0.0 W 35 50 19 27 - - 9.2
20/09:35pm -1.8 -9.4 -1.8 100 0.0 WSW 28 46 15 25 - - 9.2
20/09:30pm -1.9 -9.5 -1.9 100 0.0 W 28 41 15 22 - - 9.2
20/09:00pm -1.8 -10.3 -1.8 100 0.0 W 33 43 18 23 - - 9.2
20/08:30pm -1.1 -8.9 -1.1 100 0.0 W 30 52 16 28 - - 9.2
20/08:15pm -1.0 -8.4 -1.0 100 0.0 WNW 28 54 15 29 - - 9.2
20/08:00pm -0.8 -7.5 -0.8 100 0.0 WNW 24 44 13 24 - - 9.2
20/07:46pm -0.7 -8.1 -0.7 100 0.0 W 28 46 15 25 - - 9.2
20/07:30pm -0.7 -8.9 -0.7 100 0.0 WNW 32 46 17 25 - - 9.2
20/07:00pm -0.6 -8.9 -0.6 100 0.0 W 33 56 18 30 - - 9.2
20/06:42pm -0.4 -10.8 -0.4 100 0.0 WNW 44 74 24 40 - - 9.2
20/06:31pm -0.4 -8.5 -0.4 100 0.0 NW 32 56 17 30 - - 9.2
20/06:30pm -0.4 -8.5 -0.4 100 0.0 NW 32 46 17 25 - - 9.2
20/06:11pm -0.1 -7.4 -0.1 100 0.0 NW 28 50 15 27 - - 9.2
20/06:00pm -0.1 -7.0 -0.1 100 0.0 WNW 26 41 14 22 - - 9.2
20/05:32pm -0.2 -7.5 -0.2 100 0.0 WNW 28 54 15 29 - - 9.2
20/05:30pm -0.1 -6.7 -0.1 100 0.0 WNW 24 41 13 22 - - 9.2
20/05:11pm -0.1 -7.4 -0.1 100 0.0 WNW 28 48 15 26 - - 9.2
20/05:00pm 0.0 -7.7 0.0 100 0.0 WNW 30 43 16 23 - - 9.2
20/04:30pm -0.3 -8.0 -0.3 100 0.0 W 30 59 16 32 - - 9.2
20/04:00pm -0.5 -8.6 -0.5 100 0.0 WNW 32 54 17 29 - - 9.2
20/03:30pm -0.5 -9.2 -0.5 100 0.0 WNW 35 56 19 30 - - 9.2
20/03:08pm -0.8 -9.2 -0.8 100 0.0 WNW 33 52 18 28 - - 9.2
20/03:00pm -1.0 -9.8 -1.0 100 0.0 WNW 35 50 19 27 - - 9.2
20/02:30pm -0.9 -8.3 -0.9 100 0.0 WNW 28 43 15 23 - - 9.2
20/02:10pm -1.0 -8.4 -1.0 100 0.0 WNW 28 50 15 27 - - 9.2
20/02:00pm -1.1 -9.3 -1.1 100 0.0 WNW 32 48 17 26 - - 9.2
20/01:52pm -1.2 -9.1 -1.2 100 0.0 WNW 30 48 16 26 - - 9.2
20/01:30pm -1.3 -9.2 -1.3 100 0.0 WNW 30 46 16 25 - - 9.2
20/01:27pm -1.3 -9.2 -1.3 100 0.0 WNW 30 46 16 25 - - 9.2
20/01:02pm -1.1 -10.3 -1.1 100 0.0 W 37 63 20 34 - - 9.2
20/01:00pm -1.1 -10.6 -1.1 100 0.0 W 39 54 21 29 - - 9.2
20/12:30pm -1.0 -10.9 -1.0 100 0.0 W 41 67 22 36 - - 9.2
20/12:00pm 0.0 -10.2 0.0 100 0.0 WNW 43 72 23 39 - - 9.2
20/11:52am 0.4 -8.9 0.4 100 0.0 W 39 72 21 39 - - 9.0
20/11:47am 0.7 -9.0 0.7 100 0.0 WNW 41 70 22 38 - - 8.6
20/11:30am 1.0 -9.0 1.0 100 0.0 WNW 43 69 23 37 - - 7.4
20/11:03am 1.5 -7.7 1.5 100 0.0 NW 39 69 21 37 - - 5.4
20/11:00am 1.6 -7.2 1.6 100 0.0 NW 37 54 20 29 - - 5.2
20/10:36am 1.8 -6.9 1.8 100 0.0 NW 37 56 20 30 - - 3.8
20/10:30am 1.8 -7.7 1.8 100 0.0 NW 41 56 22 30 - - 3.4
20/10:00am 1.9 -6.8 1.9 100 0.0 NW 37 56 20 30 - - 2.4
20/09:55am 1.8 -6.9 1.8 100 0.0 NW 37 56 20 30 - - 2.2
20/09:30am 2.1 -6.6 2.1 100 0.0 NW 37 52 20 28 - - 1.0
20/09:03am 2.3 -7.1 2.2 99 0.0 NW 41 59 22 32 - - 0.0
20/09:00am 2.3 -7.7 2.2 99 0.0 NW 44 59 24 32 - - 4.6
20/08:30am 2.4 -5.5 2.3 99 0.0 WNW 33 56 18 30 - - 3.6
20/08:14am 2.5 -5.2 2.4 99 0.0 WNW 32 54 17 29 - - 3.0
20/08:00am 2.7 -4.2 2.6 99 0.0 WNW 28 37 15 20 - - 2.4
20/07:30am 2.7 -4.6 2.6 99 0.0 WNW 30 43 16 23 - - 1.6
20/07:03am 3.1 -3.7 3.0 99 0.0 WNW 28 48 15 26 - - 0.6
20/07:00am 3.0 -3.8 2.9 99 0.0 WNW 28 41 15 22 - - 0.6
20/06:30am 3.4 -3.5 2.5 94 0.4 WNW 28 39 15 21 - - 0.2
20/06:04am 3.7 -3.2 2.4 91 0.6 WNW 28 46 15 25 - - 0.2
20/06:00am 3.8 -3.5 2.3 90 0.7 WNW 30 46 16 25 - - 0.2
20/05:30am 3.8 -3.5 2.2 89 0.7 WNW 30 50 16 27 - - 0.2
20/05:28am 3.8 -3.5 2.2 89 0.7 NW 30 50 16 27 - - 0.2
20/05:00am 3.4 -3.2 1.9 90 0.7 WNW 26 41 14 22 - - 0.2
20/04:46am 3.5 -5.0 0.6 81 1.2 WNW 35 54 19 29 - - 0.0
20/04:30am 3.9 -3.8 0.2 77 1.5 WNW 30 43 16 23 - - 0.0
20/04:00am 4.6 -3.6 -0.8 68 2.2 NW 32 50 17 27 - - 0.0
20/03:32am 4.9 -2.6 -1.5 63 2.6 WNW 28 50 15 27 - - 0.0
20/03:30am 4.6 -2.5 -1.2 66 2.4 WNW 26 37 14 20 - - 0.0
20/03:00am 4.7 -2.8 -1.3 65 2.4 NW 28 39 15 21 - - 0.0
20/02:32am 5.1 -2.8 -1.6 62 2.7 NW 30 48 16 26 - - 0.0
20/02:30am 5.0 -2.9 -1.4 63 2.6 NW 30 44 16 24 - - 0.0
20/02:00am 5.3 -3.2 -1.6 61 2.8 NW 33 48 18 26 - - 0.0
20/01:30am 5.4 -3.1 -1.5 61 2.8 NW 33 50 18 27 - - 0.0
20/01:22am 5.4 -2.9 -1.5 61 2.8 NW 32 50 17 27 - - 0.0
20/01:00am 5.1 -3.1 -1.3 63 2.6 NW 32 39 17 21 - - 0.0
20/12:30am 5.1 -3.1 -1.1 64 2.5 NW 32 43 17 23 - - 0.0
20/12:00am 5.0 -2.4 -0.8 66 2.4 NW 28 39 15 21 - - 0.0
 
Date/Time
EST
Temp
°C
App
Temp
°C
Dew
Point
°C
Rel
Hum
%
Delta-T
°C
Wind Press
QNH
hPa
Press
MSL
hPa
Rain since
9am
mm
Dir  Spd
km/h
Gust
km/h
Spd
kts
Gust
kts
19/11:30pm 4.8 -2.2 -0.8 67 2.3 WNW 26 33 14 18 - - 0.0
19/11:00pm 4.9 -2.9 -0.7 67 2.3 NW 30 44 16 24 - - 0.0
19/10:30pm 4.9 -2.5 -0.5 68 2.2 NW 28 37 15 20 - - 0.0
19/10:00pm 4.9 -3.2 -0.3 69 2.2 NW 32 39 17 21 - - 0.0
19/09:30pm 4.7 -3.3 0.1 72 1.9 WNW 32 46 17 25 - - 0.0
19/09:00pm 4.5 -3.5 0.5 75 1.7 WNW 32 44 17 24 - - 0.0
19/08:30pm 4.0 -3.5 1.4 83 1.1 WNW 30 50 16 27 - - 0.0
19/08:25pm 4.2 -3.7 1.1 80 1.3 WNW 32 50 17 27 - - 0.0
19/08:00pm 3.6 -3.8 1.8 88 0.8 WNW 30 37 16 20 - - 0.0
19/07:30pm 3.3 -3.1 3.0 98 0.1 WNW 26 37 14 20 - - 0.0
19/07:00pm 3.3 -3.5 3.2 99 0.0 WNW 28 35 15 19 - - 0.0
19/06:30pm 3.5 -3.7 2.9 96 0.3 WNW 30 43 16 23 - - 0.0
19/06:00pm 3.9 -4.0 2.4 90 0.7 W 33 44 18 24 - - 0.0
19/05:30pm 4.0 -4.3 2.2 88 0.8 W 35 50 19 27 - - 0.0
19/05:09pm 4.0 -5.1 2.0 87 0.9 W 39 57 21 31 - - 0.0
19/05:00pm 4.0 -5.5 1.7 85 1.0 WNW 41 57 22 31 - - 0.0
19/04:30pm 4.2 -5.7 1.6 83 1.1 W 43 65 23 35 - - 0.0
19/04:00pm 4.3 -4.9 1.5 82 1.2 W 39 57 21 31 - - 0.0
19/03:34pm 4.2 -5.1 0.9 79 1.4 WNW 39 57 21 31 - - 0.0
19/03:30pm 4.2 -5.1 0.9 79 1.4 WNW 39 56 21 30 - - 0.0
19/03:08pm 4.3 -4.6 1.0 79 1.4 W 37 56 20 30 - - 0.0
19/03:00pm 4.5 -4.7 1.0 78 1.5 W 39 56 21 30 - - 0.0
19/02:30pm 4.2 -5.5 0.7 78 1.5 W 41 61 22 33 - - 0.0
19/02:11pm 4.1 -4.7 1.3 82 1.2 W 37 56 20 30 - - 0.0
19/02:00pm 4.1 -5.2 0.8 79 1.4 W 39 54 21 29 - - 0.0
19/01:36pm 4.1 -5.5 1.0 80 1.3 WNW 41 59 22 32 - - 0.0
19/01:30pm 5.2 -4.6 2.4 82 1.3 WNW 43 59 23 32 - - 0.0
19/01:00pm 3.0 -6.5 1.5 90 0.6 W 41 67 22 36 - - 0.0
19/12:33pm 3.5 -7.1 1.1 84 1.0 W 46 65 25 35 - - 0.0
19/12:30pm 3.9 -7.3 1.9 87 0.9 W 50 67 27 36 - - 0.0
19/12:02pm 3.1 -6.8 1.6 90 0.6 W 43 61 23 33 - - 0.0
19/12:00pm 3.1 -6.8 1.6 90 0.6 W 43 59 23 32 - - 0.0
19/11:30am 3.0 -5.7 1.7 91 0.6 WNW 37 57 20 31 - - 0.0
19/11:00am 3.1 -6.2 0.7 84 1.0 W 39 61 21 33 - - 0.0
19/10:30am 3.2 -6.8 1.3 87 0.8 WNW 43 65 23 35 - - 0.0
19/10:01am 2.3 -6.0 1.9 97 0.2 W 35 54 19 29 - - 0.0
19/10:00am 2.3 -6.4 1.7 96 0.3 W 37 54 20 29 - - 0.0
19/09:30am 1.9 -6.5 1.8 99 0.0 WNW 35 56 19 30 - - 0.0
19/09:00am 1.8 -6.0 1.7 99 0.0 W 32 52 17 28 - - 0.0
19/08:41am 1.4 -7.0 1.3 99 0.0 W 35 54 19 29 - - 0.0
19/08:30am 1.5 -6.0 1.4 99 0.0 W 30 43 16 23 - - 0.0
19/08:00am 1.1 -6.1 1.0 99 0.0 W 28 39 15 21 - - 0.0
19/07:30am 1.2 -5.2 1.1 99 0.0 W 24 33 13 18 - - 0.0
19/07:00am 1.1 -5.7 1.0 99 0.0 W 26 33 14 18 - - 0.0
19/06:30am 1.0 -5.8 0.9 99 0.0 W 26 39 14 21 - - 0.0
19/06:06am 0.9 -6.3 0.8 99 0.0 W 28 46 15 25 - - 0.0
19/06:00am 0.7 -5.8 0.6 99 0.0 W 24 35 13 19 - - 0.0
19/05:30am 0.6 -6.2 0.5 99 0.0 W 26 37 14 20 - - 0.0
19/05:00am 0.7 -6.1 0.6 99 0.0 W 26 41 14 22 - - 0.0
19/04:30am 0.6 -6.2 0.5 99 0.0 WSW 26 37 14 20 - - 0.0
19/04:00am 0.7 -6.1 0.6 99 0.0 W 26 41 14 22 - - 0.0
19/03:30am 0.8 -6.8 0.7 99 0.0 W 30 43 16 23 - - 0.0
19/03:00am 0.5 -7.1 0.4 99 0.0 W 30 43 16 23 - - 0.0
19/02:30am 0.7 -7.5 0.6 99 0.0 W 33 48 18 26 - - 0.0
19/02:00am 0.8 -7.3 0.7 99 0.0 W 33 52 18 28 - - 0.0
19/01:30am 0.9 -8.4 0.8 99 0.0 W 39 57 21 31 - - 0.0
19/01:00am 0.8 -8.9 0.7 99 0.0 W 41 59 22 32 - - 0.0
19/12:46am 1.0 -8.3 0.9 99 0.0 W 39 57 21 31 - - 0.0
19/12:30am 0.9 -7.6 0.8 99 0.0 W 35 52 19 28 - - 0.0
19/12:00am 0.8 -8.5 0.7 99 0.0 W 39 63 21 34 - - 0.0
 
Date/Time
EST
Temp
°C
App
Temp
°C
Dew
Point
°C
Rel
Hum
%
Delta-T
°C
Wind Press
QNH
hPa
Press
MSL
hPa
Rain since
9am
mm
Dir  Spd
km/h
Gust
km/h
Spd
kts
Gust
kts
18/11:39pm 0.9 -9.1 0.8 99 0.0 W 43 61 23 33 - - 0.0
18/11:30pm 1.0 -9.0 0.9 99 0.0 W 43 56 23 30 - - 0.0
18/11:00pm 1.2 -9.0 1.1 99 0.0 W 44 63 24 34 - - 0.0
18/10:30pm 1.5 -8.6 1.4 99 0.0 W 44 69 24 37 - - 0.0
18/10:00pm 1.5 -6.9 1.4 99 0.0 W 35 54 19 29 - - 0.0
18/09:31pm 1.4 -7.4 1.3 99 0.0 W 37 67 20 36 - - 0.0
18/09:30pm 1.5 -6.9 1.4 99 0.0 W 35 67 19 36 - - 0.0
18/09:03pm 1.8 -5.2 1.7 99 0.0 W 28 50 15 27 - - 0.0
18/09:00pm 1.7 -5.0 1.6 99 0.0 W 26 41 14 22 - - 0.0
18/08:30pm 1.9 -6.5 1.8 99 0.0 W 35 54 19 29 - - 0.0
18/08:00pm 1.8 -6.6 1.7 99 0.0 WNW 35 56 19 30 - - 0.0
18/07:30pm 1.9 -6.9 1.5 97 0.2 WNW 37 59 20 32 - - 0.0
18/07:00pm 2.1 -5.4 1.1 93 0.4 W 30 50 16 27 - - 0.0
18/06:53pm 2.2 -4.9 1.2 93 0.4 WNW 28 46 15 25 - - 0.0
18/06:30pm 2.3 -4.5 1.0 91 0.5 W 26 39 14 21 - - 0.0
18/06:00pm 2.6 -5.4 0.5 86 0.9 WNW 32 50 17 27 - - 0.0
18/05:50pm 2.7 -4.6 0.1 83 1.1 W 28 52 15 28 - - 0.0
18/05:30pm 2.8 -5.5 -0.5 79 1.3 W 33 46 18 25 - - 0.0
18/05:00pm 3.1 -5.5 0.0 80 1.3 W 35 54 19 29 - - 0.0
18/04:30pm 3.2 -5.4 -0.1 79 1.4 W 35 54 19 29 - - 0.0
18/04:00pm 4.1 -5.5 -1.5 67 2.2 W 39 67 21 36 - - 0.0
18/03:40pm 4.7 -4.8 -0.9 67 2.3 W 39 57 21 31 - - 0.0
18/03:30pm 4.2 -6.1 -1.0 69 2.1 W 43 59 23 32 - - 0.0
18/03:00pm 4.5 -4.9 -0.1 72 1.9 W 39 57 21 31 - - 0.0
18/02:35pm 5.2 -3.1 -0.2 68 2.3 W 33 52 18 28 - - 0.0
18/02:30pm 5.3 -2.6 0.9 73 1.9 W 32 48 17 26 - - 0.0
18/02:00pm 4.9 -3.7 4.8 99 0.0 W 39 63 21 34 - - 0.0
18/01:30pm 4.8 -4.1 3.0 88 0.8 W 39 67 21 36 - - 0.0
18/01:02pm 5.6 -2.6 4.7 94 0.4 WNW 37 56 20 30 - - 0.0
18/01:00pm 5.7 -1.9 5.6 99 0.0 WNW 35 50 19 27 - - 0.0
18/12:57pm 5.6 -2.4 5.5 99 0.0 NW 37 50 20 27 - - 0.0
18/12:53pm 5.6 -2.4 5.5 99 0.0 NW 37 57 20 31 - - 0.0
18/12:30pm 5.6 -0.7 5.6 100 0.0 WNW 28 57 15 31 - - 0.0
18/12:07pm 5.0 -1.4 5.0 100 0.0 W 28 46 15 25 - - 0.0
18/12:00pm 4.7 -2.2 4.7 100 0.0 W 30 44 16 24 - - 0.0
18/11:30am 4.4 -2.2 4.4 100 0.0 WNW 28 41 15 22 - - 0.0

Other formats

Comma delimited format used in spreadsheet applications
http://www.bom.gov.au/fwo/IDN60801/IDN60801.95916.axf

JavaScript Object Notation format (JSON) in row-major order
http://www.bom.gov.au/fwo/IDN60801/IDN60801.95916.json

Data quality

Most of these data are generated automatically and are frequently updated. Quality checks on data are not normally performed. It is possible for incorrect values to appear. Refer to information at About Latest Weather Observations and please check the disclaimer before using these data.